Time;durP1;ratioP1;P1;durP2;ratioP2;P2;SDS_P1;SDS_P2;PMS_P1;PMS_P2;Temp;Humidity;BMP_temperature;BMP_pressure;BME280_temperature;BME280_humidity;BME280_pressure;Samples;Min_cycle;Max_cycle;Signal;HPM_P1;HPM_P2
2021/05/22 00:01:13;;;;;;;4.78;1.00;;;;;;;;;;4908888;29;20076;-60
2021/05/22 00:03:39;;;;;;;5.53;0.82;;;;;;;;;;4912967;29;20047;-61
2021/05/22 00:06:06;;;;;;;5.65;1.00;;;;;;;;;;4953091;28;20047;-60
2021/05/22 00:08:32;;;;;;;4.78;1.00;;;;;;;;;;4946702;28;20054;-61
2021/05/22 00:10:59;;;;;;;7.60;0.88;;;;;;;;;;4942268;28;20035;-61
2021/05/22 00:13:25;;;;;;;7.05;0.75;;;;;;;;;;4945954;28;20050;-60
2021/05/22 00:15:51;;;;;;;4.80;0.82;;;;;;;;;;4934423;29;20054;-61
2021/05/22 00:18:17;;;;;;;5.38;1.30;;;;;;;;;;4926229;29;20039;-61
2021/05/22 00:20:43;;;;;;;9.55;1.10;;;;;;;;;;4923784;29;20063;-61
2021/05/22 00:23:11;;;;;;;2.38;0.73;;;;;;;;;;4927307;29;20098;-60
2021/05/22 00:25:37;;;;;;;3.88;0.90;;;;;;;;;;4943558;28;20044;-61
2021/05/22 00:28:04;;;;;;;6.80;0.98;;;;;;;;;;4947268;28;20092;-61
2021/05/22 00:30:30;;;;;;;6.85;1.00;;;;;;;;;;4943129;28;20054;-62
2021/05/22 00:32:56;;;;;;;4.43;0.82;;;;;;;;;;4908123;29;20035;-61
2021/05/22 00:35:22;;;;;;;8.23;1.00;;;;;;;;;;4925994;29;20065;-60
2021/05/22 00:37:48;;;;;;;10.18;0.98;;;;;;;;;;4937603;28;20054;-61
2021/05/22 00:40:15;;;;;;;9.35;0.88;;;;;;;;;;4941521;28;20031;-60
2021/05/22 00:42:43;;;;;;;4.63;1.15;;;;;;;;;;4937606;28;20047;-61
2021/05/22 00:45:11;;;;;;;3.05;1.00;;;;;;;;;;4946423;28;20047;-60
2021/05/22 00:47:37;;;;;;;6.18;1.10;;;;;;;;;;4947507;28;20052;-61
2021/05/22 00:50:04;;;;;;;4.03;1.00;;;;;;;;;;4926412;29;20047;-61
2021/05/22 00:52:32;;;;;;;3.42;1.02;;;;;;;;;;4923861;29;20055;-61
2021/05/22 00:55:01;;;;;;;5.13;0.80;;;;;;;;;;4927684;29;20059;-61
2021/05/22 00:57:28;;;;;;;4.55;0.95;;;;;;;;;;4924736;29;20055;-61
2021/05/22 00:59:54;;;;;;;8.52;0.95;;;;;;;;;;4927918;29;20115;-60
2021/05/22 01:02:25;;;;;;;3.50;0.77;;;;;;;;;;4924203;29;20104;-61
2021/05/22 01:04:52;;;;;;;5.93;0.88;;;;;;;;;;4914930;29;20141;-61
2021/05/22 01:07:19;;;;;;;10.05;0.98;;;;;;;;;;4904899;29;20043;-60
2021/05/22 01:09:46;;;;;;;5.40;0.70;;;;;;;;;;4907786;29;20040;-60
2021/05/22 01:12:16;;;;;;;4.80;0.82;;;;;;;;;;4906057;29;20059;-62
2021/05/22 01:14:46;;;;;;;11.77;1.33;;;;;;;;;;4908860;29;20056;-60
2021/05/22 01:17:13;;;;;;;9.48;1.40;;;;;;;;;;4909495;29;20040;-61
2021/05/22 01:19:41;;;;;;;6.82;0.90;;;;;;;;;;4907925;29;20064;-61
2021/05/22 01:22:10;;;;;;;7.22;0.90;;;;;;;;;;4907692;29;20062;-60
2021/05/22 01:24:42;;;;;;;5.40;0.95;;;;;;;;;;4924223;29;20040;-61
2021/05/22 01:27:09;;;;;;;3.33;0.63;;;;;;;;;;4894805;29;20040;-60
2021/05/22 01:29:35;;;;;;;8.50;0.80;;;;;;;;;;4918818;29;20036;-62
2021/05/22 01:32:02;;;;;;;5.22;0.88;;;;;;;;;;4946158;28;20036;-60
2021/05/22 01:34:28;;;;;;;8.93;0.90;;;;;;;;;;4927155;29;20043;-62
2021/05/22 01:36:54;;;;;;;9.38;0.80;;;;;;;;;;4929195;29;20048;-60
2021/05/22 01:39:20;;;;;;;5.88;0.90;;;;;;;;;;4940578;28;20050;-61
2021/05/22 01:41:47;;;;;;;4.93;0.90;;;;;;;;;;4914021;29;20051;-60
2021/05/22 01:44:14;;;;;;;2.63;0.77;;;;;;;;;;4905683;29;20058;-62
2021/05/22 01:46:41;;;;;;;6.75;0.70;;;;;;;;;;4909985;29;20044;-61
2021/05/22 01:49:08;;;;;;;2.38;0.63;;;;;;;;;;4904731;29;20063;-61
2021/05/22 01:51:35;;;;;;;4.00;0.98;;;;;;;;;;4907558;29;20092;-62
2021/05/22 01:54:02;;;;;;;8.05;0.90;;;;;;;;;;4905386;29;20040;-60
2021/05/22 01:56:28;;;;;;;6.13;0.73;;;;;;;;;;4909451;29;20092;-60
2021/05/22 01:58:54;;;;;;;7.72;0.70;;;;;;;;;;4906762;29;20051;-62
2021/05/22 02:01:24;;;;;;;4.88;0.80;;;;;;;;;;4901591;29;20040;-62
2021/05/22 02:03:51;;;;;;;4.53;0.95;;;;;;;;;;4898262;29;20143;-61
2021/05/22 02:06:20;;;;;;;2.10;0.55;;;;;;;;;;4913904;29;20131;-61
2021/05/22 02:08:48;;;;;;;3.78;0.85;;;;;;;;;;4899504;29;20056;-61
2021/05/22 02:11:15;;;;;;;7.38;0.98;;;;;;;;;;4893336;29;20029;-61
2021/05/22 02:13:42;;;;;;;5.28;0.85;;;;;;;;;;4900712;29;20054;-61
2021/05/22 02:16:09;;;;;;;3.38;0.88;;;;;;;;;;4899864;29;20044;-61
2021/05/22 02:18:37;;;;;;;3.72;0.60;;;;;;;;;;4899514;29;20100;-61
2021/05/22 02:21:04;;;;;;;3.63;0.70;;;;;;;;;;4895625;29;20040;-61
2021/05/22 02:23:33;;;;;;;5.45;0.88;;;;;;;;;;4902045;29;20640;-61
2021/05/22 02:25:59;;;;;;;5.93;0.98;;;;;;;;;;4894688;29;20136;-61
2021/05/22 02:28:27;;;;;;;7.63;1.08;;;;;;;;;;4898956;29;20056;-62
2021/05/22 02:30:55;;;;;;;2.60;0.65;;;;;;;;;;4900353;29;20062;-62
2021/05/22 02:33:22;;;;;;;6.20;0.90;;;;;;;;;;4903544;29;20103;-61
2021/05/22 02:35:51;;;;;;;3.38;0.73;;;;;;;;;;4909619;29;20131;-62
2021/05/22 02:38:19;;;;;;;6.75;0.70;;;;;;;;;;4905212;29;20060;-61
2021/05/22 02:40:46;;;;;;;5.45;1.08;;;;;;;;;;4902601;29;20059;-61
2021/05/22 02:43:13;;;;;;;3.25;0.60;;;;;;;;;;4917630;29;20183;-62
2021/05/22 02:45:41;;;;;;;3.70;0.70;;;;;;;;;;4888352;29;20062;-61
2021/05/22 02:48:09;;;;;;;2.10;0.50;;;;;;;;;;4912792;29;20127;-61
2021/05/22 02:50:36;;;;;;;1.63;0.43;;;;;;;;;;4889651;29;20036;-61
2021/05/22 02:53:03;;;;;;;7.18;0.90;;;;;;;;;;4915605;29;20032;-60
2021/05/22 02:55:32;;;;;;;4.60;0.50;;;;;;;;;;4926778;29;20043;-61
2021/05/22 02:57:58;;;;;;;4.07;0.80;;;;;;;;;;4911253;29;20040;-61
2021/05/22 03:00:24;;;;;;;3.65;0.73;;;;;;;;;;4890558;29;20047;-61
2021/05/22 03:02:50;;;;;;;4.20;0.80;;;;;;;;;;4902856;29;20130;-61
2021/05/22 03:05:16;;;;;;;3.50;0.80;;;;;;;;;;4896533;29;20068;-61
2021/05/22 03:07:44;;;;;;;2.50;0.60;;;;;;;;;;4914872;29;20035;-60
2021/05/22 03:10:12;;;;;;;4.50;0.90;;;;;;;;;;4914647;29;20062;-62
2021/05/22 03:12:38;;;;;;;1.92;0.50;;;;;;;;;;4905022;29;20058;-61
2021/05/22 03:15:05;;;;;;;3.78;0.95;;;;;;;;;;4894315;29;20054;-62
2021/05/22 03:17:31;;;;;;;4.20;0.68;;;;;;;;;;4902120;29;20056;-61
2021/05/22 03:19:57;;;;;;;3.88;0.80;;;;;;;;;;4897332;29;20056;-62
2021/05/22 03:22:24;;;;;;;2.97;0.70;;;;;;;;;;4901869;29;20085;-62
2021/05/22 03:24:50;;;;;;;2.97;0.60;;;;;;;;;;4924227;29;20052;-62
2021/05/22 03:27:17;;;;;;;4.82;0.88;;;;;;;;;;4906002;29;20091;-61
2021/05/22 03:29:43;;;;;;;5.57;0.82;;;;;;;;;;4898359;29;20036;-62
2021/05/22 03:32:09;;;;;;;6.05;0.65;;;;;;;;;;4891041;29;20047;-60
2021/05/22 03:34:36;;;;;;;1.95;0.63;;;;;;;;;;4900961;29;20138;-63
2021/05/22 03:37:02;;;;;;;6.47;0.63;;;;;;;;;;4889597;29;20081;-62
2021/05/22 03:39:28;;;;;;;2.00;0.47;;;;;;;;;;4891675;29;20039;-60
2021/05/22 03:41:55;;;;;;;7.72;0.80;;;;;;;;;;4895491;29;20040;-62
2021/05/22 03:44:22;;;;;;;8.35;1.00;;;;;;;;;;4897974;29;20047;-60
2021/05/22 03:46:48;;;;;;;2.70;0.70;;;;;;;;;;4892485;29;20092;-63
2021/05/22 03:49:14;;;;;;;2.50;0.60;;;;;;;;;;4900229;29;20056;-61
2021/05/22 03:51:40;;;;;;;1.80;0.50;;;;;;;;;;4899166;29;20036;-63
2021/05/22 03:54:06;;;;;;;7.32;0.80;;;;;;;;;;4909613;29;20043;-62
2021/05/22 03:56:32;;;;;;;4.78;0.90;;;;;;;;;;4912492;29;20047;-62
2021/05/22 03:58:58;;;;;;;3.42;0.80;;;;;;;;;;4891064;29;20060;-62
2021/05/22 04:01:27;;;;;;;4.70;0.90;;;;;;;;;;4901565;29;20127;-61
2021/05/22 04:03:53;;;;;;;5.72;0.75;;;;;;;;;;4899554;29;20039;-61
2021/05/22 04:06:19;;;;;;;3.10;0.70;;;;;;;;;;4899648;29;20037;-66
2021/05/22 04:08:45;;;;;;;1.25;0.52;;;;;;;;;;4905775;29;20108;-60
2021/05/22 04:11:12;;;;;;;7.18;0.80;;;;;;;;;;4911125;29;20054;-62
2021/05/22 04:13:38;;;;;;;5.47;0.88;;;;;;;;;;4889394;29;20060;-63
2021/05/22 04:16:05;;;;;;;10.48;0.85;;;;;;;;;;4891372;29;20084;-61
2021/05/22 04:18:32;;;;;;;8.02;0.70;;;;;;;;;;4903762;29;20059;-60
2021/05/22 04:20:59;;;;;;;2.67;0.63;;;;;;;;;;4895704;29;20040;-61
2021/05/22 04:23:25;;;;;;;4.32;0.68;;;;;;;;;;4895633;29;20046;-61
2021/05/22 04:25:51;;;;;;;2.95;0.65;;;;;;;;;;4897660;29;20045;-62
2021/05/22 04:28:17;;;;;;;4.30;0.70;;;;;;;;;;4901908;29;20039;-61
2021/05/22 04:30:43;;;;;;;5.47;0.82;;;;;;;;;;4901747;29;20183;-62
2021/05/22 04:33:09;;;;;;;2.88;0.60;;;;;;;;;;4889139;29;20043;-62
2021/05/22 04:35:36;;;;;;;7.75;0.73;;;;;;;;;;4897144;29;20063;-62
2021/05/22 04:38:02;;;;;;;2.83;0.65;;;;;;;;;;4913181;29;20051;-62
2021/05/22 04:40:28;;;;;;;3.15;0.60;;;;;;;;;;4909532;29;20066;-61
2021/05/22 04:42:54;;;;;;;7.53;1.00;;;;;;;;;;4926549;29;20032;-62
2021/05/22 04:45:21;;;;;;;7.70;0.85;;;;;;;;;;4925570;29;20050;-62
2021/05/22 04:47:47;;;;;;;6.93;0.88;;;;;;;;;;4928987;29;20063;-60
2021/05/22 04:50:13;;;;;;;6.38;0.98;;;;;;;;;;4927844;29;20036;-62
2021/05/22 04:52:40;;;;;;;5.30;0.85;;;;;;;;;;4926851;29;20125;-61
2021/05/22 04:55:07;;;;;;;4.88;0.70;;;;;;;;;;4929862;29;20044;-62
2021/05/22 04:57:33;;;;;;;4.07;0.85;;;;;;;;;;4911688;29;20032;-62
2021/05/22 04:59:59;;;;;;;6.40;0.77;;;;;;;;;;4910671;29;20067;-62
2021/05/22 05:02:25;;;;;;;5.20;0.85;;;;;;;;;;4934482;29;20075;-61
2021/05/22 05:04:51;;;;;;;4.90;0.90;;;;;;;;;;4929822;29;20058;-60
2021/05/22 05:07:17;;;;;;;3.28;0.80;;;;;;;;;;4915930;29;20044;-60
2021/05/22 05:09:45;;;;;;;3.97;0.90;;;;;;;;;;4907371;29;20056;-60
2021/05/22 05:12:14;;;;;;;2.23;0.80;;;;;;;;;;4905739;29;20061;-62
2021/05/22 05:14:40;;;;;;;4.00;0.70;;;;;;;;;;4927034;29;20047;-60
2021/05/22 05:17:06;;;;;;;4.10;0.70;;;;;;;;;;4906387;29;20130;-61
2021/05/22 05:19:32;;;;;;;8.35;1.00;;;;;;;;;;4909193;29;20071;-59
2021/05/22 05:21:58;;;;;;;3.53;0.68;;;;;;;;;;4907968;29;20043;-61
2021/05/22 05:24:24;;;;;;;6.28;1.00;;;;;;;;;;4908616;29;20028;-61
2021/05/22 05:26:51;;;;;;;4.90;0.90;;;;;;;;;;4925597;29;20088;-61
2021/05/22 05:29:17;;;;;;;5.28;0.75;;;;;;;;;;4923399;29;20058;-61
2021/05/22 05:31:45;;;;;;;8.10;0.80;;;;;;;;;;4928768;29;20159;-62
2021/05/22 05:34:11;;;;;;;2.33;0.80;;;;;;;;;;4912446;29;20028;-62
2021/05/22 05:36:37;;;;;;;4.68;1.00;;;;;;;;;;4911496;29;20056;-61
2021/05/22 05:39:03;;;;;;;5.20;0.90;;;;;;;;;;4907706;29;20028;-61
2021/05/22 05:41:32;;;;;;;5.60;1.45;;;;;;;;;;4923038;29;20056;-61
2021/05/22 05:43:59;;;;;;;3.90;0.77;;;;;;;;;;4925972;29;20068;-61
2021/05/22 05:46:25;;;;;;;7.25;0.80;;;;;;;;;;4947095;29;20035;-61
2021/05/22 05:48:51;;;;;;;5.75;0.77;;;;;;;;;;4941742;29;20055;-60
2021/05/22 05:51:17;;;;;;;2.28;0.77;;;;;;;;;;4928693;29;20046;-60
2021/05/22 05:53:43;;;;;;;6.28;1.10;;;;;;;;;;4924978;29;20051;-60
2021/05/22 05:56:09;;;;;;;7.82;1.05;;;;;;;;;;4929301;29;20035;-60
2021/05/22 05:58:35;;;;;;;4.35;0.80;;;;;;;;;;4920272;29;20192;-60
2021/05/22 06:01:06;;;;;;;6.35;0.95;;;;;;;;;;4909923;29;20059;-62
2021/05/22 06:03:32;;;;;;;7.47;0.85;;;;;;;;;;4906636;29;20051;-60
2021/05/22 06:05:58;;;;;;;6.53;0.90;;;;;;;;;;4909200;29;20040;-60
2021/05/22 06:08:24;;;;;;;6.05;0.77;;;;;;;;;;4910462;29;20051;-60
2021/05/22 06:10:52;;;;;;;4.53;0.80;;;;;;;;;;4905165;29;20048;-60
2021/05/22 06:13:25;;;;;;;4.35;0.77;;;;;;;;;;4910539;29;20091;-59
2021/05/22 06:15:59;;;;;;;4.72;1.10;;;;;;;;;;4906040;29;20054;-60
2021/05/22 06:18:27;;;;;;;5.93;0.88;;;;;;;;;;4909254;29;20069;-60
2021/05/22 06:20:54;;;;;;;;;;;;;;;;;;4921369;29;20055;-61
2021/05/22 06:23:20;;;;;;;4.88;0.77;;;;;;;;;;4928222;29;19926;-59
2021/05/22 06:25:47;;;;;;;4.68;0.70;;;;;;;;;;4913583;29;20048;-60
2021/05/22 06:28:14;;;;;;;5.55;1.10;;;;;;;;;;4909014;29;20135;-61
2021/05/22 06:30:40;;;;;;;2.40;0.80;;;;;;;;;;4922829;29;20136;-60
2021/05/22 06:33:06;;;;;;;3.78;0.93;;;;;;;;;;4910274;29;20032;-59
2021/05/22 06:35:33;;;;;;;2.78;0.75;;;;;;;;;;4906649;29;20059;-59
2021/05/22 06:37:59;;;;;;;10.77;1.92;;;;;;;;;;4909214;29;20043;-60
2021/05/22 06:40:26;;;;;;;6.18;1.95;;;;;;;;;;4926294;29;20035;-60
2021/05/22 06:42:52;;;;;;;9.43;2.22;;;;;;;;;;4927919;29;20059;-62
2021/05/22 06:45:20;;;;;;;4.72;1.05;;;;;;;;;;4942407;29;21156;-60
2021/05/22 06:47:48;;;;;;;4.25;0.90;;;;;;;;;;4918950;29;20104;-61
2021/05/22 06:50:14;;;;;;;4.43;0.82;;;;;;;;;;4899662;29;20049;-61
2021/05/22 06:52:43;;;;;;;5.35;1.05;;;;;;;;;;4902769;29;20072;-60
2021/05/22 06:55:09;;;;;;;2.63;0.93;;;;;;;;;;4913320;29;20058;-62
2021/05/22 06:57:35;;;;;;;5.10;1.13;;;;;;;;;;4911587;29;20056;-60
2021/05/22 07:00:02;;;;;;;8.68;1.00;;;;;;;;;;4903289;29;20064;-62
2021/05/22 07:02:29;;;;;;;4.32;1.05;;;;;;;;;;4902289;29;20055;-61
2021/05/22 07:04:55;;;;;;;5.20;1.10;;;;;;;;;;4907763;29;20059;-60
2021/05/22 07:07:23;;;;;;;2.38;0.88;;;;;;;;;;4902446;29;20127;-61
2021/05/22 07:09:49;;;;;;;4.45;1.08;;;;;;;;;;4904955;29;20380;-60
2021/05/22 07:12:16;;;;;;;3.67;1.00;;;;;;;;;;4901550;29;20044;-60
2021/05/22 07:14:42;;;;;;;1.92;0.80;;;;;;;;;;4905712;29;20079;-60
2021/05/22 07:17:08;;;;;;;4.28;1.15;;;;;;;;;;4900800;29;20080;-61
2021/05/22 07:19:34;;;;;;;4.35;1.10;;;;;;;;;;4904394;29;20047;-60
2021/05/22 07:22:00;;;;;;;2.72;1.10;;;;;;;;;;4910113;29;20040;-61
2021/05/22 07:24:26;;;;;;;3.28;1.15;;;;;;;;;;4919999;29;20111;-62
2021/05/22 07:26:56;;;;;;;4.07;1.00;;;;;;;;;;4913944;29;20043;-60
2021/05/22 07:29:22;;;;;;;5.18;1.20;;;;;;;;;;4903075;29;20055;-62
2021/05/22 07:31:50;;;;;;;4.15;1.15;;;;;;;;;;4902181;29;20039;-60
2021/05/22 07:34:16;;;;;;;2.03;0.83;;;;;;;;;;4902543;29;20059;-60
2021/05/22 07:36:42;;;;;;;3.42;1.08;;;;;;;;;;4916672;29;20064;-62
2021/05/22 07:39:11;;;;;;;5.35;1.05;;;;;;;;;;4903911;29;20044;-60
2021/05/22 07:41:37;;;;;;;11.68;2.10;;;;;;;;;;4902257;29;20040;-62
2021/05/22 07:44:05;;;;;;;6.72;1.75;;;;;;;;;;4914348;29;20059;-62
2021/05/22 07:46:31;;;;;;;2.97;1.00;;;;;;;;;;4900488;29;20052;-62
2021/05/22 07:48:57;;;;;;;4.38;0.95;;;;;;;;;;4899276;29;20039;-60
2021/05/22 07:51:25;;;;;;;4.10;1.05;;;;;;;;;;4911249;29;20056;-61
2021/05/22 07:53:51;;;;;;;2.60;0.80;;;;;;;;;;4917278;29;20051;-60
2021/05/22 07:56:18;;;;;;;3.20;0.93;;;;;;;;;;4915150;29;20119;-60
2021/05/22 07:58:44;;;;;;;4.95;1.00;;;;;;;;;;4903151;29;20040;-61
2021/05/22 08:01:15;;;;;;;3.25;1.05;;;;;;;;;;4905705;29;20050;-61
2021/05/22 08:03:41;;;;;;;6.93;1.00;;;;;;;;;;4898750;29;20048;-61
2021/05/22 08:06:07;;;;;;;3.28;0.90;;;;;;;;;;4921349;29;20059;-61
2021/05/22 08:08:33;;;;;;;3.15;1.00;;;;;;;;;;4899318;29;21391;-60
2021/05/22 08:10:59;;;;;;;6.43;2.13;;;;;;;;;;4911424;29;20040;-61
2021/05/22 08:13:28;;;;;;;3.10;1.20;;;;;;;;;;4902445;29;20077;-61
2021/05/22 08:15:54;;;;;;;;;;;;;;;;;;4922312;29;20036;-62
2021/05/22 08:18:21;;;;;;;3.13;1.00;;;;;;;;;;4906562;29;19934;-61
2021/05/22 08:20:47;;;;;;;2.10;0.85;;;;;;;;;;4918714;29;20036;-61
2021/05/22 08:23:13;;;;;;;1.35;0.80;;;;;;;;;;4913889;29;20044;-62
2021/05/22 08:25:40;;;;;;;2.33;0.77;;;;;;;;;;4898884;29;20127;-60
2021/05/22 08:28:07;;;;;;;1.20;0.70;;;;;;;;;;4890008;29;20127;-59
2021/05/22 08:30:36;;;;;;;5.63;1.10;;;;;;;;;;4907321;29;20043;-61
2021/05/22 08:33:02;;;;;;;3.53;1.02;;;;;;;;;;4927463;29;20115;-62
2021/05/22 08:35:29;;;;;;;3.65;0.88;;;;;;;;;;4923115;29;20039;-61
2021/05/22 08:37:55;;;;;;;2.78;1.10;;;;;;;;;;4928562;29;20031;-60
2021/05/22 08:40:26;;;;;;;6.50;0.88;;;;;;;;;;4919999;29;20051;-60
2021/05/22 08:42:51;;;;;;;2.58;0.70;;;;;;;;;;4927336;29;20054;-62
2021/05/22 08:45:20;;;;;;;2.38;0.90;;;;;;;;;;4916599;29;20044;-62
2021/05/22 08:47:49;;;;;;;4.13;1.00;;;;;;;;;;4908087;29;20062;-62
2021/05/22 08:50:15;;;;;;;3.35;1.25;;;;;;;;;;4907242;29;20124;-62
2021/05/22 08:52:43;;;;;;;3.53;1.02;;;;;;;;;;4928510;29;20296;-62
2021/05/22 08:55:09;;;;;;;3.53;1.15;;;;;;;;;;4925517;29;20126;-61
2021/05/22 08:57:35;;;;;;;5.53;1.20;;;;;;;;;;4888724;29;20049;-61
2021/05/22 09:00:02;;;;;;;7.20;1.00;;;;;;;;;;4887915;29;20045;-61
2021/05/22 09:02:28;;;;;;;6.35;1.75;;;;;;;;;;4902722;29;20036;-62
2021/05/22 09:05:18;;;;;;;3.65;1.40;;;;;;;;;;4907364;29;20059;-61
2021/05/22 09:07:46;;;;;;;2.72;1.40;;;;;;;;;;4904917;29;20063;-61
2021/05/22 09:10:14;;;;;;;3.90;1.10;;;;;;;;;;4926264;29;20055;-61
2021/05/22 09:12:41;;;;;;;4.07;0.93;;;;;;;;;;4907010;29;20087;-61
2021/05/22 09:15:09;;;;;;;3.05;1.17;;;;;;;;;;4900824;29;20284;-60
2021/05/22 09:17:36;;;;;;;3.42;1.10;;;;;;;;;;4904007;29;20051;-63
2021/05/22 09:20:16;;;;;;;2.63;1.15;;;;;;;;;;4905421;29;20471;-63
2021/05/22 09:22:42;;;;;;;3.78;1.20;;;;;;;;;;4933300;29;20047;-60
2021/05/22 09:25:10;;;;;;;2.97;1.10;;;;;;;;;;4924209;29;20107;-61
2021/05/22 09:27:37;;;;;;;4.57;1.23;;;;;;;;;;4914080;29;20083;-60
2021/05/22 09:30:05;;;;;;;3.13;1.00;;;;;;;;;;4913492;29;20296;-61
2021/05/22 09:32:31;;;;;;;3.17;1.30;;;;;;;;;;4909393;29;20051;-60
2021/05/22 09:34:58;;;;;;;5.10;1.38;;;;;;;;;;4911302;29;20072;-62
2021/05/22 09:37:24;;;;;;;6.38;1.35;;;;;;;;;;4925611;29;20035;-63
2021/05/22 09:39:50;;;;;;;3.55;1.20;;;;;;;;;;4927357;29;20036;-62
2021/05/22 09:42:24;;;;;;;4.47;1.30;;;;;;;;;;4907192;29;20051;-62
2021/05/22 09:44:50;;;;;;;3.13;1.25;;;;;;;;;;4911441;29;20056;-62
2021/05/22 09:47:17;;;;;;;4.68;1.45;;;;;;;;;;4910806;29;20098;-62
2021/05/22 09:49:43;;;;;;;4.85;1.55;;;;;;;;;;4910003;29;20622;-62
2021/05/22 09:52:10;;;;;;;6.22;1.50;;;;;;;;;;4927755;29;20059;-61
2021/05/22 09:54:40;;;;;;;2.30;1.23;;;;;;;;;;4907181;29;20118;-62
2021/05/22 09:57:06;;;;;;;5.18;1.30;;;;;;;;;;4928657;29;20043;-63
2021/05/22 09:59:34;;;;;;;2.80;1.10;;;;;;;;;;4905048;29;20040;-63
2021/05/22 10:02:00;;;;;;;4.22;1.48;;;;;;;;;;4928048;29;20062;-63
2021/05/22 10:04:28;;;;;;;5.10;2.53;;;;;;;;;;4913436;29;20036;-63
2021/05/22 10:06:57;;;;;;;5.47;2.58;;;;;;;;;;4924603;29;20047;-60
2021/05/22 10:09:24;;;;;;;4.50;1.20;;;;;;;;;;4924338;29;20164;-60
2021/05/22 10:12:06;;;;;;;5.10;1.60;;;;;;;;;;4926139;29;20044;-62
2021/05/22 10:14:32;;;;;;;4.10;1.58;;;;;;;;;;4905123;29;20286;-63
2021/05/22 10:17:02;;;;;;;6.57;1.70;;;;;;;;;;4908734;29;20040;-61
2021/05/22 10:19:28;;;;;;;3.95;1.70;;;;;;;;;;4914900;29;20043;-60
2021/05/22 10:21:56;;;;;;;3.22;1.55;;;;;;;;;;4929570;29;21460;-60
2021/05/22 10:24:22;;;;;;;4.10;1.67;;;;;;;;;;4916837;29;20036;-61
2021/05/22 10:26:49;;;;;;;7.68;1.50;;;;;;;;;;4894776;29;20060;-62
2021/05/22 10:29:15;;;;;;;3.90;1.73;;;;;;;;;;4891662;29;20047;-62
2021/05/22 10:31:42;;;;;;;3.85;1.35;;;;;;;;;;4910217;29;20056;-60
2021/05/22 10:34:10;;;;;;;4.93;1.60;;;;;;;;;;4922782;29;20040;-60
2021/05/22 10:36:47;;;;;;;4.32;1.80;;;;;;;;;;4908984;29;20055;-60
2021/05/22 10:39:31;;;;;;;3.97;1.83;;;;;;;;;;4907270;29;20036;-60
2021/05/22 10:41:59;;;;;;;4.45;1.50;;;;;;;;;;4907726;29;20084;-62
2021/05/22 10:44:32;;;;;;;2.55;1.50;;;;;;;;;;4906346;29;20103;-60
2021/05/22 10:47:11;;;;;;;4.60;2.08;;;;;;;;;;4891270;29;20036;-60
2021/05/22 10:50:02;;;;;;;6.25;2.28;;;;;;;;;;4888651;29;20050;-60
2021/05/22 10:52:29;;;;;;;3.50;1.52;;;;;;;;;;4880221;29;20032;-62
2021/05/22 10:55:06;;;;;;;2.47;1.48;;;;;;;;;;4904779;29;20160;-60
2021/05/22 10:57:32;;;;;;;3.15;1.55;;;;;;;;;;4909228;29;20039;-59
2021/05/22 11:00:19;;;;;;;4.70;1.88;;;;;;;;;;4905777;29;20046;-62
2021/05/22 11:02:48;;;;;;;2.70;1.70;;;;;;;;;;4904975;29;20048;-60
2021/05/22 11:05:14;;;;;;;;;;;;;;;;;;4887884;29;20051;-59
2021/05/22 11:07:40;;;;;;;4.70;1.63;;;;;;;;;;4889956;29;19942;-60
2021/05/22 11:10:07;;;;;;;4.38;1.85;;;;;;;;;;4889301;29;20052;-60
2021/05/22 11:12:49;;;;;;;2.88;1.40;;;;;;;;;;4921886;29;20048;-61
2021/05/22 11:15:44;;;;;;;5.90;1.90;;;;;;;;;;4928694;29;20054;-59
2021/05/22 11:18:10;;;;;;;3.47;1.90;;;;;;;;;;4930024;29;20080;-59
2021/05/22 11:20:37;;;;;;;4.30;1.20;;;;;;;;;;4927195;29;20043;-61
2021/05/22 11:23:04;;;;;;;2.03;0.90;;;;;;;;;;4907156;29;20066;-62
2021/05/22 11:25:52;;;;;;;3.97;0.90;;;;;;;;;;4893577;29;20121;-62
2021/05/22 11:28:21;;;;;;;0.70;0.70;;;;;;;;;;4906224;29;20044;-59
2021/05/22 11:30:52;;;;;;;4.32;0.90;;;;;;;;;;4908317;29;20047;-61
2021/05/22 11:33:28;;;;;;;2.05;0.90;;;;;;;;;;4940579;29;20066;-60
2021/05/22 11:35:56;;;;;;;1.10;0.70;;;;;;;;;;4926256;29;20041;-61
2021/05/22 11:38:38;;;;;;;2.20;0.80;;;;;;;;;;4923622;29;20047;-60
2021/05/22 11:41:09;;;;;;;1.70;0.80;;;;;;;;;;4914327;29;20119;-59
2021/05/22 11:43:36;;;;;;;1.30;0.90;;;;;;;;;;4922120;29;20068;-62
2021/05/22 11:46:05;;;;;;;2.95;1.10;;;;;;;;;;4926470;29;20055;-61
2021/05/22 11:48:32;;;;;;;5.65;1.15;;;;;;;;;;4909894;29;20055;-59
2021/05/22 11:51:06;;;;;;;2.55;1.00;;;;;;;;;;4901915;29;20032;-59
2021/05/22 11:53:32;;;;;;;4.93;1.88;;;;;;;;;;4905000;29;20075;-59
2021/05/22 11:55:58;;;;;;;12.07;2.33;;;;;;;;;;4908147;29;20051;-59
2021/05/22 11:58:26;;;;;;;4.63;1.42;;;;;;;;;;4904294;29;20103;-59
2021/05/22 12:00:54;;;;;;;2.97;1.25;;;;;;;;;;4908872;29;20032;-58
2021/05/22 12:03:23;;;;;;;2.72;1.23;;;;;;;;;;4912225;28;20043;-60
2021/05/22 12:05:50;;;;;;;3.13;1.50;;;;;;;;;;4926149;29;20541;-59
2021/05/22 12:08:16;;;;;;;2.40;1.35;;;;;;;;;;4924303;29;20150;-59
2021/05/22 12:10:43;;;;;;;4.65;1.75;;;;;;;;;;4926653;29;20044;-59
2021/05/22 12:13:09;;;;;;;5.80;1.90;;;;;;;;;;4922584;29;20461;-59
2021/05/22 12:15:38;;;;;;;4.60;1.80;;;;;;;;;;4908515;29;20032;-60
2021/05/22 12:18:05;;;;;;;3.33;1.33;;;;;;;;;;4905383;29;20039;-60
2021/05/22 12:20:43;;;;;;;4.60;1.80;;;;;;;;;;4889555;29;20037;-59
2021/05/22 12:23:22;;;;;;;2.77;1.70;;;;;;;;;;4886968;29;20048;-59
2021/05/22 12:25:47;;;;;;;;;;;;;;;;;;4894644;29;20039;-59
2021/05/22 12:28:14;;;;;;;4.03;1.80;;;;;;;;;;4923967;29;19978;-59
2021/05/22 12:30:41;;;;;;;7.50;2.20;;;;;;;;;;4905712;29;20036;-60
2021/05/22 12:33:10;;;;;;;5.45;2.30;;;;;;;;;;4907423;29;20040;-61
2021/05/22 12:35:36;;;;;;;8.40;2.10;;;;;;;;;;4937336;29;20047;-61
2021/05/22 12:38:03;;;;;;;6.45;2.15;;;;;;;;;;4927248;29;20047;-61
2021/05/22 12:40:43;;;;;;;2.53;1.45;;;;;;;;;;4914288;29;20046;-59
2021/05/22 12:43:09;;;;;;;4.97;1.73;;;;;;;;;;4928968;29;20036;-60
2021/05/22 12:45:36;;;;;;;3.55;1.52;;;;;;;;;;4925032;29;20058;-60
2021/05/22 12:48:03;;;;;;;6.80;1.65;;;;;;;;;;4946152;29;20125;-59
2021/05/22 12:50:30;;;;;;;3.20;1.50;;;;;;;;;;4913275;29;20051;-61
2021/05/22 12:52:59;;;;;;;7.95;2.53;;;;;;;;;;4908715;29;20067;-62
2021/05/22 12:55:28;;;;;;;7.45;2.30;;;;;;;;;;4911685;29;20047;-59
2021/05/22 12:57:54;;;;;;;3.58;1.88;;;;;;;;;;4926731;29;20032;-59
2021/05/22 13:00:20;;;;;;;7.18;1.60;;;;;;;;;;4917602;29;20043;-59
2021/05/22 13:02:51;;;;;;;11.63;1.60;;;;;;;;;;4907149;29;20040;-59
2021/05/22 13:05:19;;;;;;;5.20;1.83;;;;;;;;;;4904592;29;20141;-59
2021/05/22 13:07:46;;;;;;;6.75;2.15;;;;;;;;;;4908311;29;20047;-60
2021/05/22 13:10:13;;;;;;;7.18;1.98;;;;;;;;;;4907038;29;20036;-59
2021/05/22 13:12:52;;;;;;;5.55;1.45;;;;;;;;;;4910951;29;20040;-61
2021/05/22 13:15:18;;;;;;;2.17;1.10;;;;;;;;;;4900562;29;20043;-59
2021/05/22 13:17:49;;;;;;;6.13;1.45;;;;;;;;;;4910048;29;20052;-60
2021/05/22 13:20:16;;;;;;;9.57;1.73;;;;;;;;;;4909006;29;20044;-59
2021/05/22 13:22:44;;;;;;;7.63;2.38;;;;;;;;;;4924815;29;20036;-60
2021/05/22 13:25:13;;;;;;;4.50;1.65;;;;;;;;;;4912480;29;20127;-59
2021/05/22 13:27:38;;;;;;;;;;;;;;;;;;4920078;29;20091;-59
2021/05/22 13:30:06;;;;;;;4.75;1.50;;;;;;;;;;4944779;28;19914;-59
2021/05/22 13:32:35;;;;;;;4.00;1.70;;;;;;;;;;4911806;29;20131;-59
2021/05/22 13:35:01;;;;;;;;;;;;;;;;;;4907036;29;20067;-58
2021/05/22 13:37:27;;;;;;;4.13;1.75;;;;;;;;;;4921446;29;20013;-59
2021/05/22 13:39:54;;;;;;;3.45;1.45;;;;;;;;;;4929337;29;20044;-59
2021/05/22 13:42:20;;;;;;;6.28;1.98;;;;;;;;;;4907787;29;20143;-59
2021/05/22 13:44:46;;;;;;;9.25;2.08;;;;;;;;;;4927691;29;20148;-59
2021/05/22 13:47:12;;;;;;;6.40;1.88;;;;;;;;;;4923646;29;20056;-59
2021/05/22 13:49:38;;;;;;;6.45;1.73;;;;;;;;;;4920779;29;20047;-59
2021/05/22 13:52:05;;;;;;;5.97;1.95;;;;;;;;;;4921986;29;20522;-60
2021/05/22 13:54:31;;;;;;;5.13;1.48;;;;;;;;;;4909997;29;20108;-60
2021/05/22 13:56:58;;;;;;;5.50;1.63;;;;;;;;;;4906571;29;20067;-60
2021/05/22 13:59:24;;;;;;;4.20;1.58;;;;;;;;;;4909071;29;20055;-59
2021/05/22 14:01:51;;;;;;;5.30;1.45;;;;;;;;;;4910173;29;20056;-60
2021/05/22 14:04:17;;;;;;;5.22;2.22;;;;;;;;;;4911461;29;20058;-59
2021/05/22 14:06:43;;;;;;;5.38;1.45;;;;;;;;;;4919342;29;20076;-60
2021/05/22 14:09:09;;;;;;;7.80;1.75;;;;;;;;;;4925225;29;20068;-60
2021/05/22 14:11:36;;;;;;;7.93;1.70;;;;;;;;;;4911989;29;20087;-59
2021/05/22 14:14:03;;;;;;;6.82;1.52;;;;;;;;;;4924816;29;20051;-60
2021/05/22 14:16:29;;;;;;;9.50;2.33;;;;;;;;;;4911094;29;20043;-60
2021/05/22 14:18:55;;;;;;;9.00;2.60;;;;;;;;;;4935292;29;20155;-61
2021/05/22 14:21:21;;;;;;;8.98;2.53;;;;;;;;;;4930636;29;20051;-59
2021/05/22 14:23:48;;;;;;;6.20;1.92;;;;;;;;;;4918740;29;20047;-59
2021/05/22 14:26:16;;;;;;;3.85;1.20;;;;;;;;;;4917027;29;20044;-59
2021/05/22 14:28:44;;;;;;;4.10;1.23;;;;;;;;;;4891842;29;20048;-60
2021/05/22 14:31:12;;;;;;;6.80;1.65;;;;;;;;;;4910156;29;20047;-59
2021/05/22 14:33:38;;;;;;;6.47;1.17;;;;;;;;;;4906555;29;20130;-59
2021/05/22 14:36:05;;;;;;;8.32;1.60;;;;;;;;;;4908348;29;20060;-59
2021/05/22 14:38:32;;;;;;;3.28;1.15;;;;;;;;;;4905840;29;20140;-61
2021/05/22 14:40:58;;;;;;;6.75;1.38;;;;;;;;;;4916627;29;20044;-59
2021/05/22 14:43:24;;;;;;;3.40;1.00;;;;;;;;;;4909225;29;20168;-59
2021/05/22 14:45:50;;;;;;;4.93;1.00;;;;;;;;;;4921705;29;20059;-60
2021/05/22 14:48:18;;;;;;;5.25;1.20;;;;;;;;;;4927407;29;20040;-60